createdAt,value
2022-08-10T00:01:51.307Z,1.20
2022-08-10T00:04:21.498Z,1.55
2022-08-10T00:06:50.121Z,1.20
2022-08-10T00:09:17.958Z,1.35
2022-08-10T00:11:45.585Z,1.30
2022-08-10T00:14:13.244Z,1.27
2022-08-10T00:16:40.832Z,1.30
2022-08-10T00:19:09.779Z,1.20
2022-08-10T00:21:37.725Z,1.30
2022-08-10T00:24:05.711Z,1.27
2022-08-10T00:27:52.459Z,1.12
2022-08-10T00:29:21.018Z,1.12
2022-08-10T00:31:58.295Z,1.30
2022-08-10T00:34:31.221Z,1.20
2022-08-10T00:36:59.727Z,1.90
2022-08-10T00:39:29.153Z,1.37
2022-08-10T00:42:07.129Z,1.45
2022-08-10T00:44:37.435Z,1.30
2022-08-10T00:47:05.354Z,1.37
2022-08-10T00:49:33.226Z,1.33
2022-08-10T00:52:01.160Z,1.50
2022-08-10T00:54:29.336Z,1.42
2022-08-10T00:57:17.978Z,1.20
2022-08-10T00:59:57.775Z,1.30
2022-08-10T01:02:27.931Z,1.27
2022-08-10T01:04:59.638Z,1.40
2022-08-10T01:07:37.686Z,1.50
2022-08-10T01:10:11.116Z,1.42
2022-08-10T01:13:05.030Z,1.25
2022-08-10T01:15:37.525Z,1.40
2022-08-10T01:18:17.871Z,1.60
2022-08-10T01:21:00.266Z,1.62
2022-08-10T01:23:51.985Z,1.58
2022-08-10T01:26:37.401Z,1.50
2022-08-10T01:29:33.646Z,1.60
2022-08-10T01:32:05.221Z,1.50
2022-08-10T01:34:43.549Z,1.50
2022-08-10T01:37:15.690Z,1.35
2022-08-10T01:39:48.204Z,2.30
2022-08-10T01:42:19.878Z,1.73
2022-08-10T01:44:53.182Z,1.30
2022-08-10T01:47:42.559Z,1.50
2022-08-10T01:50:28.108Z,1.70
2022-08-10T01:53:03.565Z,1.80
2022-08-10T01:55:34.471Z,1.60
2022-08-10T01:58:06.549Z,1.80
2022-08-10T02:00:37.509Z,1.70
2022-08-10T02:03:08.815Z,1.75
2022-08-10T02:05:42.197Z,1.60
2022-08-10T02:08:14.180Z,1.47
2022-08-10T02:10:44.649Z,1.60
2022-08-10T02:13:18.968Z,1.58
2022-08-10T02:16:01.585Z,1.58
2022-08-10T02:18:31.998Z,1.35
2022-08-10T02:21:02.778Z,1.70
2022-08-10T02:23:32.186Z,1.50
2022-08-10T02:26:01.471Z,1.80
2022-08-10T02:28:31.800Z,1.67
2022-08-10T02:31:06.129Z,1.80
2022-08-10T02:33:37.959Z,1.77
2022-08-10T02:36:11.796Z,1.62
2022-08-10T02:38:58.093Z,1.60
2022-08-10T02:45:00.750Z,1.60
2022-08-10T02:45:24.537Z,1.65
2022-08-10T02:47:29.324Z,1.60
2022-08-10T02:50:30.170Z,1.60
2022-08-10T02:53:55.473Z,1.83
2022-08-10T02:56:25.961Z,1.80
2022-08-10T02:58:59.457Z,1.50
2022-08-10T03:01:33.085Z,1.80
2022-08-10T03:04:07.839Z,2.17
2022-08-10T03:06:40.617Z,1.52
2022-08-10T03:09:16.746Z,1.50
2022-08-10T03:12:35.315Z,1.65
2022-08-10T03:14:38.439Z,1.70
2022-08-10T03:17:06.789Z,1.90
2022-08-10T03:20:33.956Z,1.70
2022-08-10T03:22:25.827Z,1.98
2022-08-10T03:24:55.670Z,1.77
2022-08-10T03:27:24.616Z,1.80
2022-08-10T03:30:23.465Z,1.95
2022-08-10T03:32:40.946Z,1.90
2022-08-10T03:35:10.264Z,1.98
2022-08-10T03:37:38.206Z,1.60
2022-08-10T03:40:08.198Z,1.87
2022-08-10T03:42:38.438Z,1.70
2022-08-10T03:45:09.839Z,1.80
2022-08-10T03:47:43.995Z,1.67
2022-08-10T03:50:27.906Z,1.90
2022-08-10T03:53:01.906Z,1.60
2022-08-10T03:56:28.561Z,1.70
2022-08-10T03:58:22.828Z,1.70
2022-08-10T04:00:51.681Z,1.83
2022-08-10T04:03:21.810Z,1.80
2022-08-10T04:05:49.500Z,1.40
2022-08-10T04:08:19.914Z,1.60
2022-08-10T04:10:47.594Z,1.70
2022-08-10T04:13:15.206Z,1.90
2022-08-10T04:15:42.873Z,1.70
2022-08-10T04:18:10.581Z,1.77
2022-08-10T04:20:41.876Z,1.85
2022-08-10T04:23:13.289Z,1.70
2022-08-10T04:25:41.255Z,1.67
2022-08-10T04:28:12.890Z,1.80
2022-08-10T04:30:42.521Z,1.80
2022-08-10T04:33:18.803Z,2.08
2022-08-10T04:35:47.557Z,1.60
2022-08-10T04:38:16.741Z,1.90
2022-08-10T04:40:45.548Z,2.05
2022-08-10T04:43:13.694Z,1.77
2022-08-10T04:45:47.714Z,2.03
2022-08-10T04:48:40.613Z,1.70
2022-08-10T04:51:17.940Z,1.70
2022-08-10T04:54:04.706Z,1.70
2022-08-10T04:56:35.763Z,1.67
2022-08-10T04:59:11.825Z,1.70
2022-08-10T05:02:21.433Z,1.98
2022-08-10T05:04:35.325Z,1.73
2022-08-10T05:07:11.254Z,1.80
2022-08-10T05:10:04.819Z,1.87
2022-08-10T05:12:38.946Z,1.92
2022-08-10T05:15:10.157Z,1.60
2022-08-10T05:17:38.414Z,1.40
2022-08-10T05:20:08.233Z,1.45
2022-08-10T05:22:38.508Z,1.30
2022-08-10T05:25:09.487Z,1.45
2022-08-10T05:27:38.008Z,1.75
2022-08-10T05:30:07.043Z,1.20
2022-08-10T05:32:57.717Z,1.52
2022-08-10T05:35:56.675Z,1.40
2022-08-10T05:38:18.781Z,1.52
2022-08-10T05:40:48.312Z,1.73
2022-08-10T05:43:20.370Z,1.83
2022-08-10T05:46:17.737Z,1.58
2022-08-10T05:48:55.191Z,1.30
2022-08-10T05:51:26.973Z,1.35
2022-08-10T05:54:00.823Z,1.70
2022-08-10T05:56:53.346Z,1.35
2022-08-10T06:00:10.757Z,1.27
2022-08-10T06:02:33.206Z,1.50
2022-08-10T06:05:01.281Z,1.50
2022-08-10T06:07:31.225Z,1.20
2022-08-10T06:10:02.023Z,1.30
2022-08-10T06:12:32.209Z,1.60
2022-08-10T06:15:10.282Z,1.50
2022-08-10T06:18:01.558Z,1.52
2022-08-10T06:20:35.793Z,1.23
2022-08-10T06:23:05.308Z,1.33
2022-08-10T06:26:11.503Z,1.42
2022-08-10T06:28:24.487Z,1.50
2022-08-10T06:30:54.808Z,1.50
2022-08-10T06:33:24.369Z,1.60
2022-08-10T06:35:56.096Z,1.20
2022-08-10T06:38:25.974Z,1.23
2022-08-10T06:40:58.082Z,1.40
2022-08-10T06:43:30.578Z,1.33
2022-08-10T06:46:07.182Z,1.30
2022-08-10T06:48:50.409Z,1.35
2022-08-10T06:51:40.823Z,1.20
2022-08-10T06:54:12.048Z,1.23
2022-08-10T06:57:01.634Z,1.50
2022-08-10T06:59:49.093Z,1.50
2022-08-10T07:02:22.717Z,1.30
2022-08-10T07:04:57.197Z,1.30
2022-08-10T07:07:28.578Z,1.40
2022-08-10T07:09:57.640Z,1.40
2022-08-10T07:12:26.536Z,1.30
2022-08-10T07:14:56.550Z,1.60
2022-08-10T07:17:26.094Z,1.50
2022-08-10T07:19:57.236Z,1.80
2022-08-10T07:23:22.635Z,1.20
2022-08-10T07:25:25.181Z,1.25
2022-08-10T07:28:00.626Z,1.42
2022-08-10T07:30:41.573Z,1.55
2022-08-10T07:33:15.178Z,1.27
2022-08-10T07:35:44.324Z,1.00
2022-08-10T07:38:19.120Z,1.40
2022-08-10T07:40:51.160Z,1.12
2022-08-10T07:43:21.821Z,1.02
2022-08-10T07:45:51.312Z,1.37
2022-08-10T07:48:26.385Z,1.10
2022-08-10T07:50:59.358Z,1.20
2022-08-10T07:53:37.206Z,1.30
2022-08-10T07:56:16.923Z,0.90
2022-08-10T07:59:05.963Z,0.97
2022-08-10T08:01:36.680Z,0.90
2022-08-10T08:04:11.961Z,0.90
2022-08-10T08:06:42.451Z,1.10
2022-08-10T08:09:12.135Z,1.00
2022-08-10T08:11:43.596Z,0.97
2022-08-10T08:14:12.251Z,1.00
2022-08-10T08:16:45.077Z,1.20
2022-08-10T08:19:27.887Z,1.20
2022-08-10T08:24:04.586Z,1.27
2022-08-10T08:24:46.905Z,1.23
2022-08-10T08:27:19.696Z,1.20
2022-08-10T08:29:49.357Z,1.20
2022-08-10T08:32:22.254Z,1.23
2022-08-10T08:34:53.784Z,1.33
2022-08-10T08:38:29.976Z,1.20
2022-08-10T08:40:24.870Z,1.17
2022-08-10T08:43:14.349Z,1.40
2022-08-10T08:46:20.847Z,1.10
2022-08-10T08:48:57.673Z,1.20
2022-08-10T08:52:09.870Z,1.20
2022-08-10T08:54:40.018Z,1.10
2022-08-10T08:57:49.861Z,1.05
2022-08-10T09:00:26.002Z,1.23
2022-08-10T09:03:18.581Z,1.27
2022-08-10T09:06:00.002Z,1.20
2022-08-10T09:09:03.845Z,1.10
2022-08-10T09:11:55.466Z,1.20
2022-08-10T09:14:42.377Z,0.98
2022-08-10T09:17:36.247Z,1.30
2022-08-10T09:20:23.508Z,1.20
2022-08-10T09:23:04.635Z,1.27
2022-08-10T09:25:41.749Z,1.30
2022-08-10T09:28:12.779Z,1.33
2022-08-10T09:31:22.115Z,1.20
2022-08-10T09:36:21.607Z,1.10
2022-08-10T09:37:42.628Z,1.20
2022-08-10T09:41:01.268Z,1.30
2022-08-10T09:43:25.535Z,1.20
2022-08-10T09:46:46.524Z,1.00
2022-08-10T09:50:04.486Z,1.00
2022-08-10T09:53:04.621Z,1.20
2022-08-10T09:56:17.438Z,1.05
2022-08-10T09:59:27.098Z,0.95
2022-08-10T10:02:04.498Z,0.85
2022-08-10T10:04:49.604Z,0.90
2022-08-10T10:07:27.553Z,1.10
2022-08-10T10:10:04.703Z,0.90
2022-08-10T10:12:57.504Z,1.02
2022-08-10T10:15:46.502Z,1.10
2022-08-10T10:18:32.619Z,1.03
2022-08-10T10:21:55.215Z,1.00
2022-08-10T10:24:30.724Z,1.08
2022-08-10T10:27:05.684Z,0.80
2022-08-10T10:30:00.838Z,1.12
2022-08-10T10:32:45.934Z,1.13
2022-08-10T10:35:26.661Z,0.80
2022-08-10T10:38:02.539Z,0.98
2022-08-10T10:40:50.916Z,1.55
2022-08-10T10:43:25.121Z,1.15
2022-08-10T10:46:23.207Z,1.30
2022-08-10T10:49:36.097Z,1.05
2022-08-10T10:52:30.829Z,1.55
2022-08-10T10:55:10.099Z,1.00
2022-08-10T10:58:20.332Z,0.90
2022-08-10T11:01:16.529Z,1.23
2022-08-10T11:04:02.456Z,0.95
2022-08-10T11:07:10.456Z,1.20
2022-08-10T11:10:08.849Z,0.80
2022-08-10T11:12:56.950Z,0.95
2022-08-10T11:15:47.613Z,0.90
2022-08-10T11:18:49.204Z,1.02
2022-08-10T11:21:37.463Z,0.75
2022-08-10T11:24:48.051Z,0.95
2022-08-10T11:27:55.896Z,1.10
2022-08-10T11:30:44.594Z,1.33
2022-08-10T11:33:32.449Z,1.17
2022-08-10T11:36:10.098Z,1.00
2022-08-10T11:39:14.379Z,0.90
2022-08-10T11:42:10.195Z,1.10
2022-08-10T11:44:55.519Z,1.00
2022-08-10T11:47:32.970Z,1.35
2022-08-10T11:50:08.634Z,1.17
2022-08-10T11:52:47.165Z,1.10
2022-08-10T11:55:22.865Z,1.10
2022-08-10T11:57:55.666Z,1.00
2022-08-10T12:00:24.930Z,0.80
2022-08-10T12:03:00.884Z,0.90
2022-08-10T12:05:53.806Z,0.62
2022-08-10T12:10:05.375Z,0.73
2022-08-10T12:11:24.209Z,0.87
2022-08-10T12:14:22.553Z,0.70
2022-08-10T12:17:01.680Z,0.80
2022-08-10T12:19:59.673Z,0.90
2022-08-10T12:22:59.957Z,0.85
2022-08-10T12:25:56.081Z,0.90
2022-08-10T12:28:50.723Z,0.93
2022-08-10T12:31:22.645Z,0.95
2022-08-10T12:34:01.981Z,0.98
2022-08-10T12:36:41.462Z,0.80
2022-08-10T12:39:17.653Z,0.80
2022-08-10T12:41:50.997Z,0.82
2022-08-10T12:44:41.198Z,0.95
2022-08-10T12:47:28.760Z,0.90
2022-08-10T12:50:29.301Z,0.90
2022-08-10T12:53:07.897Z,1.20
2022-08-10T12:55:38.497Z,0.95
2022-08-10T12:58:59.394Z,0.70
2022-08-10T13:01:17.706Z,0.85
2022-08-10T13:04:21.025Z,0.98
2022-08-10T13:06:48.556Z,0.73
2022-08-10T13:09:22.386Z,1.00
2022-08-10T13:12:39.203Z,0.98
2022-08-10T13:14:57.172Z,0.82
2022-08-10T13:17:38.676Z,1.00
2022-08-10T13:20:17.692Z,1.00
2022-08-10T13:22:52.541Z,1.12
2022-08-10T13:25:27.618Z,1.00
2022-08-10T13:28:01.389Z,0.80
2022-08-10T13:30:51.075Z,1.10
2022-08-10T13:34:03.810Z,0.90
2022-08-10T13:36:08.948Z,1.00
2022-08-10T13:38:37.141Z,0.93
2022-08-10T13:41:09.195Z,0.73
2022-08-10T13:43:49.825Z,0.90
2022-08-10T13:46:22.327Z,1.10
2022-08-10T13:48:54.618Z,0.80
2022-08-10T13:51:57.426Z,0.93
2022-08-10T13:54:16.873Z,0.73
2022-08-10T13:56:47.603Z,0.90
2022-08-10T13:59:16.632Z,1.00
2022-08-10T14:01:52.444Z,1.05
2022-08-10T14:04:20.537Z,0.80
2022-08-10T14:06:55.465Z,0.85
2022-08-10T14:09:33.993Z,0.70
2022-08-10T14:12:06.001Z,0.87
2022-08-10T14:14:36.985Z,0.98
2022-08-10T14:17:07.810Z,1.10
2022-08-10T14:19:43.506Z,0.90
2022-08-10T14:22:21.881Z,0.77
2022-08-10T14:25:07.349Z,0.70
2022-08-10T14:28:02.216Z,0.70
2022-08-10T14:30:30.700Z,0.70
2022-08-10T14:33:00.408Z,0.70
2022-08-10T14:36:19.685Z,0.70
2022-08-10T14:38:22.355Z,0.80
2022-08-10T14:40:54.732Z,0.70
2022-08-10T14:43:28.634Z,1.10
2022-08-10T14:46:03.544Z,0.60
2022-08-10T14:48:40.327Z,0.90
2022-08-10T14:51:12.873Z,0.77
2022-08-10T14:53:45.340Z,0.70
2022-08-10T14:56:15.651Z,0.88
2022-08-10T14:59:05.648Z,0.93
2022-08-10T15:02:39.066Z,0.82
2022-08-10T15:04:28.985Z,0.70
2022-08-10T15:07:11.900Z,0.80
2022-08-10T15:10:00.920Z,1.00
2022-08-10T15:12:41.053Z,1.00
2022-08-10T15:15:17.981Z,1.08
2022-08-10T15:18:02.795Z,0.80
2022-08-10T15:20:31.800Z,0.73
2022-08-10T15:23:07.106Z,0.90
2022-08-10T15:25:57.764Z,0.90
2022-08-10T15:28:37.279Z,0.70
2022-08-10T15:31:20.850Z,0.90
2022-08-10T15:34:09.214Z,1.30
2022-08-10T15:37:36.595Z,0.90
2022-08-10T15:40:26.079Z,0.80
2022-08-10T15:43:01.761Z,1.10
2022-08-10T15:45:35.653Z,0.93
2022-08-10T15:48:06.927Z,0.90
2022-08-10T15:50:44.770Z,0.85
2022-08-10T15:53:31.692Z,1.12
2022-08-10T15:56:09.502Z,0.90
2022-08-10T15:58:53.232Z,0.87
2022-08-10T16:02:13.199Z,1.02
2022-08-10T16:04:31.732Z,0.93
2022-08-10T16:07:13.269Z,0.82
2022-08-10T16:10:23.637Z,0.80
2022-08-10T16:13:00.201Z,1.20
2022-08-10T16:15:31.043Z,0.80
2022-08-10T16:18:03.806Z,0.90
2022-08-10T16:20:54.830Z,1.20
2022-08-10T16:23:39.905Z,1.00
2022-08-10T16:26:17.608Z,0.80
2022-08-10T16:28:57.140Z,1.00
2022-08-10T16:31:40.023Z,1.10
2022-08-10T16:34:15.872Z,0.90
2022-08-10T16:36:50.800Z,0.80
2022-08-10T16:39:57.711Z,1.00
2022-08-10T16:42:39.560Z,1.12
2022-08-10T16:45:20.660Z,0.90
2022-08-10T16:47:53.012Z,1.12
2022-08-10T16:50:28.378Z,0.98
2022-08-10T16:53:01.899Z,1.00
2022-08-10T16:55:48.471Z,0.90
2022-08-10T16:58:20.498Z,1.12
2022-08-10T17:00:50.412Z,1.00
2022-08-10T17:04:06.325Z,0.70
2022-08-10T17:06:19.949Z,0.90
2022-08-10T17:08:53.231Z,1.00
2022-08-10T17:11:24.248Z,1.00
2022-08-10T17:13:56.967Z,1.20
2022-08-10T17:16:26.418Z,0.93
2022-08-10T17:18:55.794Z,1.00
2022-08-10T17:21:28.985Z,0.90
2022-08-10T17:24:04.193Z,0.98
2022-08-10T17:26:37.578Z,0.90
2022-08-10T17:29:53.175Z,1.10
2022-08-10T17:32:08.035Z,0.90
2022-08-10T17:34:46.508Z,1.00
2022-08-10T17:37:18.038Z,1.00
2022-08-10T17:39:56.789Z,1.00
2022-08-10T17:42:26.655Z,1.00
2022-08-10T17:44:59.451Z,0.90
2022-08-10T17:47:28.136Z,1.10
2022-08-10T17:50:00.115Z,1.20
2022-08-10T17:52:33.556Z,0.90
2022-08-10T17:55:06.390Z,1.08
2022-08-10T17:57:40.288Z,1.27
2022-08-10T18:00:14.092Z,0.90
2022-08-10T18:02:46.148Z,1.00
2022-08-10T18:05:17.992Z,1.20
2022-08-10T18:07:52.655Z,1.20
2022-08-10T18:10:22.843Z,1.00
2022-08-10T18:12:54.422Z,1.10
2022-08-10T18:15:26.803Z,1.12
2022-08-10T18:17:59.396Z,1.25
2022-08-10T18:20:33.936Z,0.80
2022-08-10T18:23:03.407Z,1.10
2022-08-10T18:25:34.621Z,1.20
2022-08-10T18:28:09.024Z,1.23
2022-08-10T18:30:46.197Z,1.08
2022-08-10T18:33:15.259Z,1.12
2022-08-10T18:35:46.297Z,1.17
2022-08-10T18:38:15.978Z,1.35
2022-08-10T18:41:08.163Z,1.30
2022-08-10T18:44:09.890Z,1.60
2022-08-10T18:46:46.957Z,1.10
2022-08-10T18:49:20.892Z,1.30
2022-08-10T18:51:51.602Z,1.27
2022-08-10T18:54:38.830Z,1.40
2022-08-10T18:57:35.868Z,1.27
2022-08-10T19:00:14.523Z,1.40
2022-08-10T19:03:11.238Z,1.40
2022-08-10T19:06:10.880Z,1.35
2022-08-10T19:08:49.356Z,1.40
2022-08-10T19:11:26.147Z,1.40
2022-08-10T19:14:15.200Z,1.30
2022-08-10T19:17:09.693Z,1.40
2022-08-10T19:20:14.073Z,1.40
2022-08-10T19:22:50.142Z,1.35
2022-08-10T19:26:41.182Z,1.50
2022-08-10T19:28:31.266Z,1.50
2022-08-10T19:31:43.420Z,1.47
2022-08-10T19:34:32.288Z,1.50
2022-08-10T19:37:20.057Z,1.40
2022-08-10T19:39:57.829Z,1.80
2022-08-10T19:42:53.256Z,1.30
2022-08-10T19:46:01.304Z,1.50
2022-08-10T19:48:36.878Z,1.60
2022-08-10T19:51:12.213Z,1.52
2022-08-10T19:53:57.102Z,1.45
2022-08-10T19:56:34.994Z,1.50
2022-08-10T20:00:02.088Z,1.67
2022-08-10T20:02:27.504Z,1.80
2022-08-10T20:05:06.950Z,1.60
2022-08-10T20:07:47.743Z,1.70
2022-08-10T20:10:43.179Z,1.85
2022-08-10T20:13:22.482Z,1.30
2022-08-10T20:16:22.054Z,1.62
2022-08-10T20:18:54.575Z,1.62
2022-08-10T20:21:30.886Z,1.58
2022-08-10T20:24:06.741Z,1.50
2022-08-10T20:26:45.232Z,1.50
2022-08-10T20:29:25.022Z,1.70
2022-08-10T20:32:24.213Z,1.65
2022-08-10T20:35:01.960Z,1.40
2022-08-10T20:38:02.636Z,1.55
2022-08-10T20:40:30.533Z,1.40
2022-08-10T20:43:06.942Z,1.65
2022-08-10T20:46:08.425Z,1.62
2022-08-10T20:48:43.799Z,1.45
2022-08-10T20:51:24.046Z,1.83
2022-08-10T20:54:12.915Z,1.60
2022-08-10T20:56:50.807Z,1.60
2022-08-10T20:59:24.209Z,1.67
2022-08-10T21:02:20.844Z,1.62
2022-08-10T21:05:17.206Z,1.90
2022-08-10T21:08:10.085Z,1.40
2022-08-10T21:10:59.467Z,1.60
2022-08-10T21:13:50.980Z,1.62
2022-08-10T21:16:55.855Z,1.50
2022-08-10T21:19:39.305Z,1.45
2022-08-10T21:22:31.687Z,1.43
2022-08-10T21:25:15.440Z,1.70
2022-08-10T21:28:11.076Z,1.70
2022-08-10T21:30:42.601Z,1.85
2022-08-10T21:33:17.137Z,1.70
2022-08-10T21:35:52.542Z,1.40
2022-08-10T21:38:47.428Z,1.50
2022-08-10T21:41:58.834Z,1.35
2022-08-10T21:44:50.242Z,1.42
2022-08-10T21:48:06.617Z,1.60
2022-08-10T21:51:05.890Z,1.60
2022-08-10T21:54:00.980Z,1.45
2022-08-10T21:57:22.462Z,1.52
2022-08-10T22:00:15.461Z,1.48
2022-08-10T22:03:02.310Z,1.92
2022-08-10T22:05:51.453Z,1.27
2022-08-10T22:08:41.364Z,1.70
2022-08-10T22:11:37.740Z,1.40
2022-08-10T22:14:25.641Z,1.50
2022-08-10T22:17:59.596Z,1.85
2022-08-10T22:20:41.750Z,1.63
2022-08-10T22:23:46.924Z,1.50
2022-08-10T22:27:04.375Z,1.52
2022-08-10T22:29:59.799Z,1.60
2022-08-10T22:33:22.206Z,1.52
2022-08-10T22:36:36.197Z,1.50
2022-08-10T22:40:11.209Z,1.58
2022-08-10T22:42:58.031Z,1.50
2022-08-10T22:45:44.313Z,1.50
2022-08-10T22:48:29.798Z,1.42
2022-08-10T22:51:12.556Z,1.60
2022-08-10T22:54:03.406Z,1.77
2022-08-10T22:56:48.816Z,1.58
2022-08-10T22:59:31.007Z,1.58
2022-08-10T23:02:17.074Z,1.30
2022-08-10T23:04:56.264Z,1.47
2022-08-10T23:07:27.697Z,1.40
2022-08-10T23:10:06.580Z,1.42
2022-08-10T23:12:43.345Z,1.58
2022-08-10T23:15:38.710Z,1.55
2022-08-10T23:18:27.440Z,1.50
2022-08-10T23:20:58.826Z,1.37
2022-08-10T23:23:31.136Z,1.55
2022-08-10T23:26:01.421Z,1.50
2022-08-10T23:28:39.421Z,1.55
2022-08-10T23:31:50.421Z,1.30
2022-08-10T23:34:21.022Z,1.40
2022-08-10T23:36:53.137Z,1.50
2022-08-10T23:39:28.442Z,1.50
2022-08-10T23:42:04.691Z,1.45
2022-08-10T23:44:49.216Z,1.47
2022-08-10T23:47:22.406Z,1.70
2022-08-10T23:49:55.185Z,1.77
2022-08-10T23:52:34.506Z,1.50
2022-08-10T23:55:06.049Z,1.87
2022-08-10T23:57:36.311Z,1.40
